createdAt,value
2022-08-23T00:00:59.170Z,4.82
2022-08-23T00:02:09.113Z,5.22
2022-08-23T00:03:25.095Z,4.70
2022-08-23T00:04:35.068Z,5.00
2022-08-23T00:05:37.403Z,4.85
2022-08-23T00:06:41.349Z,5.53
2022-08-23T00:07:44.219Z,5.45
2022-08-23T00:08:48.935Z,5.32
2022-08-23T00:09:52.106Z,5.20
2022-08-23T00:10:54.207Z,5.13
2022-08-23T00:12:07.528Z,5.30
2022-08-23T00:13:10.381Z,4.50
2022-08-23T00:14:15.848Z,4.82
2022-08-23T00:15:21.204Z,5.05
2022-08-23T00:16:23.738Z,4.80
2022-08-23T00:17:33.344Z,4.80
2022-08-23T00:18:36.941Z,4.80
2022-08-23T00:19:40.799Z,4.53
2022-08-23T00:20:42.872Z,4.55
2022-08-23T00:21:47.465Z,4.90
2022-08-23T00:22:49.677Z,4.80
2022-08-23T00:23:52.672Z,4.88
2022-08-23T00:24:54.734Z,5.47
2022-08-23T00:25:57.717Z,4.55
2022-08-23T00:27:07.672Z,12.10
2022-08-23T00:28:12.518Z,5.05
2022-08-23T00:29:18.202Z,23.33
2022-08-23T00:30:21.426Z,24.35
2022-08-23T00:31:24.088Z,5.43
2022-08-23T00:32:29.171Z,4.38
2022-08-23T00:33:31.905Z,4.10
2022-08-23T00:34:35.280Z,4.30
2022-08-23T00:35:37.653Z,4.45
2022-08-23T00:36:40.677Z,4.72
2022-08-23T00:37:50.677Z,4.18
2022-08-23T00:39:08.963Z,5.65
2022-08-23T00:40:15.154Z,14.13
2022-08-23T00:41:17.345Z,4.72
2022-08-23T00:42:51.727Z,4.55
2022-08-23T00:44:14.548Z,12.27
2022-08-23T00:45:38.140Z,10.32
2022-08-23T00:47:03.154Z,5.10
2022-08-23T00:48:07.825Z,4.57
2022-08-23T00:49:12.979Z,5.57
2022-08-23T00:50:25.791Z,7.50
2022-08-23T00:51:46.899Z,6.07
2022-08-23T00:53:05.719Z,4.80
2022-08-23T00:54:09.627Z,4.78
2022-08-23T00:55:12.925Z,4.45
2022-08-23T00:56:17.926Z,4.75
2022-08-23T00:57:21.344Z,5.10
2022-08-23T00:58:25.004Z,9.65
2022-08-23T00:59:28.111Z,4.57
2022-08-23T01:00:32.661Z,4.45
2022-08-23T01:01:35.294Z,5.10
2022-08-23T01:02:38.574Z,4.50
2022-08-23T01:03:43.771Z,4.03
2022-08-23T01:04:53.213Z,4.60
2022-08-23T01:06:04.070Z,4.10
2022-08-23T01:07:13.178Z,4.18
2022-08-23T01:08:17.010Z,5.50
2022-08-23T01:09:21.423Z,4.20
2022-08-23T01:10:30.169Z,5.10
2022-08-23T01:11:40.275Z,4.30
2022-08-23T01:12:50.383Z,4.38
2022-08-23T01:13:58.388Z,4.15
2022-08-23T01:15:04.617Z,4.20
2022-08-23T01:16:16.886Z,4.45
2022-08-23T01:17:22.932Z,4.15
2022-08-23T01:18:29.295Z,4.90
2022-08-23T01:19:36.746Z,4.95
2022-08-23T01:20:46.912Z,4.32
2022-08-23T01:21:55.021Z,4.88
2022-08-23T01:23:03.053Z,4.80
2022-08-23T01:24:07.519Z,7.13
2022-08-23T01:25:13.418Z,4.70
2022-08-23T01:26:21.750Z,4.45
2022-08-23T01:27:25.999Z,4.60
2022-08-23T01:28:28.108Z,5.07
2022-08-23T01:29:31.569Z,4.60
2022-08-23T01:30:35.302Z,4.80
2022-08-23T01:31:38.598Z,5.00
2022-08-23T01:32:44.540Z,4.40
2022-08-23T01:33:51.069Z,4.85
2022-08-23T01:34:53.746Z,4.57
2022-08-23T01:35:59.521Z,4.45
2022-08-23T01:37:05.548Z,5.22
2022-08-23T01:38:10.429Z,4.60
2022-08-23T01:39:13.848Z,4.60
2022-08-23T01:40:17.220Z,5.63
2022-08-23T01:41:19.580Z,5.03
2022-08-23T01:42:23.525Z,4.75
2022-08-23T01:43:27.078Z,5.85
2022-08-23T01:44:30.303Z,5.13
2022-08-23T01:45:34.571Z,4.90
2022-08-23T01:46:37.501Z,5.10
2022-08-23T01:47:41.964Z,4.45
2022-08-23T01:48:45.570Z,5.10
2022-08-23T01:49:48.669Z,4.93
2022-08-23T01:50:52.157Z,4.32
2022-08-23T01:51:55.235Z,4.85
2022-08-23T01:52:59.164Z,5.00
2022-08-23T01:54:02.643Z,4.72
2022-08-23T01:55:08.460Z,4.72
2022-08-23T01:56:14.941Z,4.70
2022-08-23T01:57:18.274Z,4.72
2022-08-23T01:58:20.361Z,5.50
2022-08-23T01:59:24.203Z,4.85
2022-08-23T02:00:34.035Z,5.10
2022-08-23T02:01:38.172Z,4.85
2022-08-23T02:02:40.741Z,5.40
2022-08-23T02:03:44.674Z,5.13
2022-08-23T02:04:49.592Z,5.93
2022-08-23T02:06:59.950Z,4.95
2022-08-23T02:08:23.059Z,4.90
2022-08-23T02:09:27.744Z,5.50
2022-08-23T02:10:36.241Z,5.40
2022-08-23T02:11:41.594Z,4.78
2022-08-23T02:12:44.756Z,4.93
2022-08-23T02:13:50.654Z,6.22
2022-08-23T02:14:55.463Z,5.80
2022-08-23T02:16:00.414Z,5.25
2022-08-23T02:17:04.936Z,4.93
2022-08-23T02:18:07.931Z,4.47
2022-08-23T02:19:14.090Z,4.72
2022-08-23T02:20:16.167Z,5.13
2022-08-23T02:21:19.942Z,5.40
2022-08-23T02:22:22.617Z,5.60
2022-08-23T02:23:26.061Z,5.80
2022-08-23T02:24:28.708Z,5.15
2022-08-23T02:25:31.735Z,5.00
2022-08-23T02:26:36.886Z,5.15
2022-08-23T02:27:42.980Z,5.13
2022-08-23T02:28:50.697Z,4.75
2022-08-23T02:29:54.216Z,5.15
2022-08-23T02:30:56.533Z,5.45
2022-08-23T02:32:01.116Z,4.85
2022-08-23T02:33:03.745Z,5.45
2022-08-23T02:35:30.011Z,5.40
2022-08-23T02:36:34.978Z,5.32
2022-08-23T02:37:37.187Z,5.07
2022-08-23T02:38:40.454Z,5.30
2022-08-23T02:39:44.293Z,5.18
2022-08-23T02:40:48.325Z,5.32
2022-08-23T02:41:57.775Z,5.18
2022-08-23T02:43:00.285Z,5.00
2022-08-23T02:44:05.228Z,4.97
2022-08-23T02:45:08.785Z,5.55
2022-08-23T02:46:17.521Z,4.88
2022-08-23T02:47:20.450Z,5.20
2022-08-23T02:48:36.472Z,5.20
2022-08-23T02:49:40.228Z,5.38
2022-08-23T02:50:43.514Z,5.30
2022-08-23T02:51:45.624Z,5.50
2022-08-23T02:52:48.700Z,5.72
2022-08-23T02:53:50.789Z,5.07
2022-08-23T02:54:58.194Z,5.55
2022-08-23T02:56:00.686Z,5.00
2022-08-23T02:57:07.250Z,5.40
2022-08-23T02:58:09.335Z,4.95
2022-08-23T02:59:13.378Z,5.10
2022-08-23T03:00:17.606Z,5.50
2022-08-23T03:01:23.079Z,5.20
2022-08-23T03:02:27.249Z,5.47
2022-08-23T03:03:30.723Z,5.40
2022-08-23T03:04:36.369Z,5.70
2022-08-23T03:05:39.326Z,5.10
2022-08-23T03:06:42.208Z,5.53
2022-08-23T03:07:46.021Z,5.70
2022-08-23T03:08:48.786Z,5.65
2022-08-23T03:09:51.911Z,6.10
2022-08-23T03:10:53.953Z,5.40
2022-08-23T03:11:57.142Z,6.07
2022-08-23T03:13:01.210Z,5.75
2022-08-23T03:14:05.017Z,5.20
2022-08-23T03:15:08.184Z,5.68
2022-08-23T03:16:11.678Z,5.55
2022-08-23T03:17:19.407Z,5.25
2022-08-23T03:18:22.427Z,5.82
2022-08-23T03:19:24.846Z,5.35
2022-08-23T03:20:28.297Z,5.43
2022-08-23T03:21:31.187Z,6.00
2022-08-23T03:22:35.888Z,5.28
2022-08-23T03:23:39.231Z,5.50
2022-08-23T03:24:42.897Z,4.80
2022-08-23T03:25:46.316Z,5.53
2022-08-23T03:27:03.547Z,6.15
2022-08-23T03:28:07.719Z,5.53
2022-08-23T03:29:14.186Z,6.40
2022-08-23T03:30:38.019Z,5.80
2022-08-23T03:31:41.929Z,5.53
2022-08-23T03:32:49.026Z,5.60
2022-08-23T03:33:52.593Z,6.50
2022-08-23T03:34:56.461Z,5.78
2022-08-23T03:35:59.040Z,5.95
2022-08-23T03:37:04.068Z,5.82
2022-08-23T03:38:06.548Z,5.30
2022-08-23T03:39:11.202Z,6.18
2022-08-23T03:40:13.929Z,5.25
2022-08-23T03:41:17.725Z,5.32
2022-08-23T03:42:20.433Z,5.57
2022-08-23T03:43:35.906Z,5.32
2022-08-23T03:44:38.032Z,5.68
2022-08-23T03:45:41.076Z,5.40
2022-08-23T03:46:44.494Z,5.53
2022-08-23T03:47:47.842Z,6.10
2022-08-23T03:48:51.819Z,6.18
2022-08-23T03:49:55.439Z,5.93
2022-08-23T03:50:57.517Z,5.50
2022-08-23T03:52:02.069Z,5.97
2022-08-23T03:53:07.004Z,5.90
2022-08-23T03:54:12.097Z,5.53
2022-08-23T03:55:14.697Z,6.88
2022-08-23T03:56:29.257Z,5.78
2022-08-23T03:57:31.471Z,5.63
2022-08-23T03:58:36.965Z,6.30
2022-08-23T03:59:40.844Z,5.78
2022-08-23T04:00:45.866Z,5.85
2022-08-23T04:01:48.669Z,6.60
2022-08-23T04:02:51.896Z,5.70
2022-08-23T04:03:54.608Z,6.35
2022-08-23T04:04:58.024Z,6.25
2022-08-23T04:06:29.741Z,5.93
2022-08-23T04:07:32.905Z,6.35
2022-08-23T04:08:35.198Z,6.15
2022-08-23T04:09:41.094Z,6.80
2022-08-23T04:10:46.591Z,6.10
2022-08-23T04:11:51.344Z,5.80
2022-08-23T04:12:55.072Z,6.38
2022-08-23T04:13:59.552Z,6.00
2022-08-23T04:15:02.794Z,6.75
2022-08-23T04:16:09.031Z,6.72
2022-08-23T04:17:11.070Z,6.40
2022-08-23T04:18:14.035Z,6.20
2022-08-23T04:19:16.831Z,6.50
2022-08-23T04:20:34.929Z,6.72
2022-08-23T04:21:43.871Z,6.85
2022-08-23T04:22:47.855Z,6.65
2022-08-23T04:23:52.733Z,6.60
2022-08-23T04:24:56.596Z,6.28
2022-08-23T04:25:58.988Z,6.78
2022-08-23T04:27:02.576Z,5.95
2022-08-23T04:28:04.974Z,6.60
2022-08-23T04:29:11.587Z,6.57
2022-08-23T04:30:35.235Z,6.72
2022-08-23T04:31:39.747Z,6.68
2022-08-23T04:32:43.882Z,6.28
2022-08-23T04:33:52.523Z,6.30
2022-08-23T04:34:55.132Z,6.53
2022-08-23T04:35:58.679Z,6.43
2022-08-23T04:37:01.389Z,6.95
2022-08-23T04:38:24.115Z,6.30
2022-08-23T04:39:30.199Z,6.30
2022-08-23T04:40:51.669Z,6.90
2022-08-23T04:42:14.870Z,6.68
2022-08-23T04:43:17.821Z,6.10
2022-08-23T04:44:22.202Z,6.50
2022-08-23T04:45:27.179Z,6.05
2022-08-23T04:46:30.331Z,7.20
2022-08-23T04:47:39.165Z,6.40
2022-08-23T04:48:43.563Z,6.70
2022-08-23T04:49:46.814Z,6.72
2022-08-23T04:50:49.929Z,6.75
2022-08-23T04:51:55.540Z,6.78
2022-08-23T04:52:59.162Z,6.53
2022-08-23T04:54:02.030Z,6.55
2022-08-23T04:55:08.763Z,6.90
2022-08-23T04:56:20.397Z,7.05
2022-08-23T04:57:23.393Z,6.88
2022-08-23T04:58:25.465Z,6.70
2022-08-23T04:59:30.229Z,6.95
2022-08-23T05:00:32.687Z,7.15
2022-08-23T05:01:36.424Z,7.00
2022-08-23T05:02:39.722Z,7.68
2022-08-23T05:03:43.566Z,6.82
2022-08-23T05:04:46.971Z,7.35
2022-08-23T05:05:50.089Z,6.95
2022-08-23T05:06:53.725Z,6.80
2022-08-23T05:07:57.527Z,6.53
2022-08-23T05:09:00.227Z,7.10
2022-08-23T05:10:03.253Z,7.18
2022-08-23T05:11:07.422Z,6.72
2022-08-23T05:12:12.288Z,6.78
2022-08-23T05:13:14.373Z,7.55
2022-08-23T05:14:17.565Z,7.22
2022-08-23T05:15:21.281Z,6.88
2022-08-23T05:16:31.076Z,7.40
2022-08-23T05:17:41.155Z,7.32
2022-08-23T05:18:44.307Z,7.45
2022-08-23T05:19:47.473Z,6.53
2022-08-23T05:20:51.356Z,7.15
2022-08-23T05:21:57.072Z,6.65
2022-08-23T05:23:07.488Z,6.97
2022-08-23T05:24:16.473Z,7.60
2022-08-23T05:25:21.559Z,7.00
2022-08-23T05:26:25.756Z,8.38
2022-08-23T05:27:27.824Z,7.00
2022-08-23T05:28:34.471Z,7.35
2022-08-23T05:29:37.122Z,7.15
2022-08-23T05:30:41.724Z,7.38
2022-08-23T05:31:53.298Z,7.53
2022-08-23T05:32:58.212Z,7.15
2022-08-23T05:34:03.718Z,7.28
2022-08-23T05:35:23.796Z,7.22
2022-08-23T05:36:26.823Z,7.22
2022-08-23T05:37:29.934Z,7.00
2022-08-23T05:38:32.510Z,7.40
2022-08-23T05:39:37.125Z,7.47
2022-08-23T05:40:44.504Z,7.15
2022-08-23T05:41:49.747Z,7.53
2022-08-23T05:42:53.127Z,6.93
2022-08-23T05:43:56.139Z,6.93
2022-08-23T05:44:58.862Z,6.82
2022-08-23T05:46:07.236Z,7.85
2022-08-23T05:47:24.845Z,6.70
2022-08-23T05:48:48.682Z,6.45
2022-08-23T05:49:53.650Z,7.22
2022-08-23T05:50:57.349Z,7.18
2022-08-23T05:51:59.750Z,7.07
2022-08-23T05:53:09.919Z,6.88
2022-08-23T05:54:12.677Z,6.93
2022-08-23T05:55:15.728Z,7.25
2022-08-23T05:56:31.616Z,7.10
2022-08-23T05:57:36.033Z,7.07
2022-08-23T05:58:38.261Z,6.38
2022-08-23T05:59:42.050Z,7.63
2022-08-23T06:00:44.237Z,6.40
2022-08-23T06:01:50.215Z,6.40
2022-08-23T06:02:56.269Z,6.50
2022-08-23T06:04:00.414Z,6.97
2022-08-23T06:05:02.477Z,7.13
2022-08-23T06:06:06.997Z,6.80
2022-08-23T06:07:11.026Z,6.57
2022-08-23T06:08:14.502Z,6.95
2022-08-23T06:09:19.397Z,6.75
2022-08-23T06:10:21.723Z,6.65
2022-08-23T06:11:38.122Z,6.70
2022-08-23T06:12:42.758Z,6.50
2022-08-23T06:13:48.472Z,7.30
2022-08-23T06:14:51.800Z,6.35
2022-08-23T06:15:54.868Z,6.57
2022-08-23T06:16:59.764Z,6.00
2022-08-23T06:18:03.227Z,5.88
2022-08-23T06:19:09.719Z,6.03
2022-08-23T06:20:32.671Z,6.70
2022-08-23T06:21:43.932Z,5.70
2022-08-23T06:22:47.161Z,5.75
2022-08-23T06:23:50.300Z,5.85
2022-08-23T06:24:52.674Z,6.45
2022-08-23T06:26:10.158Z,5.70
2022-08-23T06:27:13.308Z,4.97
2022-08-23T06:28:17.669Z,5.20
2022-08-23T06:29:22.692Z,6.20
2022-08-23T06:30:40.075Z,4.93
2022-08-23T06:32:07.948Z,5.20
2022-08-23T06:33:15.612Z,5.43
2022-08-23T06:34:24.249Z,4.85
2022-08-23T06:35:38.743Z,5.18
2022-08-23T06:36:50.470Z,5.07
2022-08-23T06:38:15.915Z,4.68
2022-08-23T06:39:38.014Z,4.90
2022-08-23T06:41:04.816Z,4.45
2022-08-23T06:42:38.065Z,5.05
2022-08-23T06:43:41.426Z,4.90
2022-08-23T06:44:56.354Z,4.40
2022-08-23T06:46:13.121Z,4.95
2022-08-23T06:47:18.418Z,4.80
2022-08-23T06:48:23.767Z,4.53
2022-08-23T06:49:28.530Z,5.18
2022-08-23T06:50:32.072Z,4.90
2022-08-23T06:51:56.798Z,4.60
2022-08-23T06:53:12.940Z,4.57
2022-08-23T06:54:47.703Z,4.55
2022-08-23T06:56:12.711Z,4.63
2022-08-23T06:57:24.351Z,4.68
2022-08-23T06:58:53.018Z,4.40
2022-08-23T07:00:06.462Z,4.60
2022-08-23T07:01:51.595Z,4.43
2022-08-23T07:02:59.014Z,4.63
2022-08-23T07:04:24.539Z,4.45
2022-08-23T07:05:44.192Z,4.53
2022-08-23T07:07:11.168Z,4.60
2022-08-23T07:08:13.944Z,4.97
2022-08-23T07:09:18.590Z,4.50
2022-08-23T07:10:21.505Z,4.65
2022-08-23T07:11:23.851Z,4.40
2022-08-23T07:12:26.757Z,4.53
2022-08-23T07:13:28.978Z,4.60
2022-08-23T07:14:32.219Z,4.20
2022-08-23T07:15:34.340Z,5.05
2022-08-23T07:16:41.506Z,4.60
2022-08-23T07:17:43.530Z,4.10
2022-08-23T07:18:49.614Z,5.88
2022-08-23T07:19:53.391Z,4.93
2022-08-23T07:20:56.690Z,4.50
2022-08-23T07:22:00.725Z,4.55
2022-08-23T07:23:03.055Z,4.85
2022-08-23T07:24:06.857Z,4.47
2022-08-23T07:25:10.401Z,4.32
2022-08-23T07:26:16.450Z,4.38
2022-08-23T07:27:19.787Z,4.32
2022-08-23T07:28:35.102Z,4.45
2022-08-23T07:29:39.899Z,4.90
2022-08-23T07:30:45.289Z,4.10
2022-08-23T07:31:51.836Z,4.60
2022-08-23T07:32:55.091Z,4.70
2022-08-23T07:34:02.244Z,4.70
2022-08-23T07:35:08.050Z,4.53
2022-08-23T07:36:14.596Z,4.75
2022-08-23T07:37:18.901Z,4.38
2022-08-23T07:38:20.977Z,4.72
2022-08-23T07:39:26.352Z,4.20
2022-08-23T07:40:29.128Z,4.60
2022-08-23T07:41:35.743Z,4.60
2022-08-23T07:42:37.760Z,4.40
2022-08-23T07:43:42.100Z,5.03
2022-08-23T07:44:46.642Z,4.68
2022-08-23T07:45:49.704Z,4.60
2022-08-23T07:46:53.170Z,4.30
2022-08-23T07:47:55.432Z,4.40
2022-08-23T07:49:03.478Z,4.30
2022-08-23T07:50:15.158Z,4.85
2022-08-23T07:51:18.333Z,4.10
2022-08-23T07:52:22.003Z,5.85
2022-08-23T07:53:31.798Z,3.95
2022-08-23T07:54:41.665Z,4.30
2022-08-23T07:56:06.750Z,4.13
2022-08-23T07:57:20.015Z,3.80
2022-08-23T07:58:37.210Z,4.50
2022-08-23T08:00:03.445Z,4.35
2022-08-23T08:01:35.608Z,3.88
2022-08-23T08:02:37.776Z,4.88
2022-08-23T08:03:43.856Z,4.13
2022-08-23T08:04:56.963Z,3.97
2022-08-23T08:06:00.818Z,4.22
2022-08-23T08:07:18.749Z,3.95
2022-08-23T08:08:27.655Z,4.10
2022-08-23T08:09:31.176Z,4.13
2022-08-23T08:10:33.664Z,3.80
2022-08-23T08:11:37.679Z,3.90
2022-08-23T08:12:40.321Z,4.10
2022-08-23T08:13:52.704Z,3.80
2022-08-23T08:14:56.697Z,4.00
2022-08-23T08:16:05.408Z,4.00
2022-08-23T08:17:10.756Z,4.35
2022-08-23T08:18:42.783Z,4.53
2022-08-23T08:20:41.995Z,4.50
2022-08-23T08:22:28.544Z,3.53
2022-08-23T08:23:58.726Z,4.00
2022-08-23T08:25:23.646Z,4.22
2022-08-23T08:26:27.837Z,3.90
2022-08-23T08:27:33.355Z,3.75
2022-08-23T08:28:38.658Z,4.20
2022-08-23T08:29:43.866Z,3.80
2022-08-23T08:30:45.915Z,3.80
2022-08-23T08:31:54.163Z,4.00
2022-08-23T08:32:56.786Z,3.88
2022-08-23T08:33:59.851Z,4.32
2022-08-23T08:35:02.484Z,3.55
2022-08-23T08:36:09.286Z,3.93
2022-08-23T08:37:11.589Z,4.18
2022-08-23T08:38:14.603Z,4.65
2022-08-23T08:39:19.567Z,4.03
2022-08-23T08:40:32.812Z,3.97
2022-08-23T08:42:04.244Z,4.03
2022-08-23T08:43:20.024Z,3.63
2022-08-23T08:44:33.480Z,4.10
2022-08-23T08:45:53.559Z,4.33
2022-08-23T08:47:07.891Z,4.15
2022-08-23T08:48:16.108Z,3.95
2022-08-23T08:49:31.978Z,3.42
2022-08-23T08:50:39.498Z,3.53
2022-08-23T08:51:49.379Z,3.10
2022-08-23T08:52:56.412Z,3.77
2022-08-23T08:54:20.319Z,3.70
2022-08-23T08:55:30.009Z,4.20
2022-08-23T08:56:34.445Z,3.95
2022-08-23T08:57:51.607Z,3.50
2022-08-23T08:58:58.182Z,3.53
2022-08-23T09:00:06.711Z,3.65
2022-08-23T09:01:12.353Z,3.95
2022-08-23T09:02:31.827Z,3.30
2022-08-23T09:03:37.387Z,3.80
2022-08-23T09:04:46.522Z,3.50
2022-08-23T09:05:56.401Z,3.67
2022-08-23T09:07:08.089Z,3.60
2022-08-23T09:08:24.032Z,3.85
2022-08-23T09:09:45.188Z,3.47
2022-08-23T09:11:04.098Z,3.10
2022-08-23T09:12:19.210Z,3.90
2022-08-23T09:15:10.279Z,3.47
2022-08-23T09:16:48.093Z,3.88
2022-08-23T09:17:54.642Z,3.25
2022-08-23T09:19:02.111Z,3.70
2022-08-23T09:20:07.526Z,3.35
2022-08-23T09:21:11.138Z,3.70
2022-08-23T09:22:21.937Z,2.92
2022-08-23T09:23:32.137Z,3.28
2022-08-23T09:24:35.234Z,3.30
2022-08-23T09:25:53.873Z,3.75
2022-08-23T09:27:00.019Z,3.80
2022-08-23T09:28:04.904Z,3.60
2022-08-23T09:29:19.536Z,3.40
2022-08-23T09:30:23.333Z,3.90
2022-08-23T09:31:37.710Z,4.00
2022-08-23T09:32:44.087Z,3.83
2022-08-23T09:33:49.402Z,3.38
2022-08-23T09:35:23.889Z,3.53
2022-08-23T09:36:35.233Z,3.38
2022-08-23T09:37:54.741Z,3.25
2022-08-23T09:39:00.448Z,3.28
2022-08-23T09:40:16.477Z,3.53
2022-08-23T09:41:25.788Z,3.38
2022-08-23T09:42:32.894Z,3.67
2022-08-23T09:43:44.878Z,3.37
2022-08-23T09:44:49.839Z,3.45
2022-08-23T09:45:58.575Z,3.70
2022-08-23T09:47:09.933Z,3.27
2022-08-23T09:48:17.132Z,3.65
2022-08-23T09:49:28.465Z,3.92
2022-08-23T09:50:41.346Z,3.05
2022-08-23T09:51:51.053Z,3.50
2022-08-23T09:53:00.208Z,3.42
2022-08-23T09:54:08.031Z,3.10
2022-08-23T09:55:28.097Z,3.53
2022-08-23T09:56:40.164Z,3.72
2022-08-23T09:57:48.688Z,4.43
2022-08-23T09:58:54.924Z,3.78
2022-08-23T10:00:25.545Z,4.20
2022-08-23T10:01:36.718Z,3.50
2022-08-23T10:02:47.191Z,3.85
2022-08-23T10:04:10.706Z,3.35
2022-08-23T10:05:21.542Z,3.72
2022-08-23T10:06:31.346Z,3.80
2022-08-23T10:07:42.766Z,4.25
2022-08-23T10:08:56.156Z,3.30
2022-08-23T10:10:24.524Z,3.85
2022-08-23T10:11:30.336Z,4.15
2022-08-23T10:12:33.988Z,3.90
2022-08-23T10:13:39.756Z,3.90
2022-08-23T10:14:44.609Z,3.67
2022-08-23T10:15:57.895Z,3.97
2022-08-23T10:17:15.939Z,4.38
2022-08-23T10:18:30.156Z,4.00
2022-08-23T10:19:43.433Z,3.72
2022-08-23T10:20:52.221Z,3.85
2022-08-23T10:22:02.051Z,3.90
2022-08-23T10:23:17.522Z,4.18
2022-08-23T10:24:39.643Z,4.07
2022-08-23T10:25:47.426Z,3.58
2022-08-23T10:27:37.965Z,3.50
2022-08-23T10:29:07.824Z,3.90
2022-08-23T10:30:14.921Z,3.60
2022-08-23T10:31:36.635Z,4.33
2022-08-23T10:32:51.660Z,3.95
2022-08-23T10:34:07.429Z,4.30
2022-08-23T10:35:30.076Z,4.35
2022-08-23T10:36:39.907Z,4.15
2022-08-23T10:37:52.206Z,4.43
2022-08-23T10:38:58.787Z,4.50
2022-08-23T10:40:11.952Z,5.05
2022-08-23T10:41:45.068Z,4.70
2022-08-23T10:42:58.946Z,4.90
2022-08-23T10:44:13.588Z,4.93
2022-08-23T10:45:26.276Z,5.37
2022-08-23T10:46:31.788Z,4.70
2022-08-23T10:47:37.363Z,4.80
2022-08-23T10:48:51.711Z,5.03
2022-08-23T10:49:55.821Z,5.20
2022-08-23T10:51:03.726Z,4.70
2022-08-23T10:52:11.092Z,4.70
2022-08-23T10:53:17.993Z,5.20
2022-08-23T10:54:45.871Z,5.90
2022-08-23T10:56:03.795Z,5.73
2022-08-23T10:57:15.443Z,5.30
2022-08-23T10:58:25.323Z,5.67
2022-08-23T10:59:30.312Z,5.80
2022-08-23T11:00:35.468Z,5.60
2022-08-23T11:01:49.929Z,6.30
2022-08-23T11:02:59.272Z,6.80
2022-08-23T11:04:17.637Z,4.80
2022-08-23T11:05:35.918Z,5.53
2022-08-23T11:06:51.070Z,5.90
2022-08-23T11:08:01.115Z,5.70
2022-08-23T11:09:08.219Z,5.67
2022-08-23T11:10:17.617Z,5.47
2022-08-23T11:11:46.387Z,5.77
2022-08-23T11:12:55.581Z,5.93
2022-08-23T11:13:57.838Z,5.77
2022-08-23T11:15:19.095Z,5.73
2022-08-23T11:16:27.501Z,5.90
2022-08-23T11:17:37.586Z,5.77
2022-08-23T11:18:43.884Z,6.00
2022-08-23T11:19:52.759Z,6.37
2022-08-23T11:21:44.927Z,5.73
2022-08-23T11:23:14.472Z,6.13
2022-08-23T11:24:49.229Z,6.90
2022-08-23T11:25:51.673Z,6.70
2022-08-23T11:27:07.703Z,6.20
2022-08-23T11:28:39.958Z,6.53
2022-08-23T11:29:43.570Z,6.77
2022-08-23T11:31:24.781Z,6.13
2022-08-23T11:32:33.562Z,5.90
2022-08-23T11:33:46.540Z,6.20
2022-08-23T11:34:51.587Z,6.47
2022-08-23T11:36:16.742Z,6.47
2022-08-23T11:37:52.443Z,6.17
2022-08-23T11:39:09.452Z,6.23
2022-08-23T11:40:17.567Z,6.60
2022-08-23T11:41:25.430Z,6.30
2022-08-23T11:42:47.123Z,6.50
2022-08-23T11:44:16.067Z,6.90
2022-08-23T11:45:30.443Z,6.80
2022-08-23T11:46:35.977Z,7.33
2022-08-23T11:48:09.245Z,6.80
2022-08-23T11:49:53.880Z,6.33
2022-08-23T11:51:19.506Z,6.40
2022-08-23T11:52:38.168Z,7.20
2022-08-23T11:54:00.523Z,6.80
2022-08-23T11:55:37.934Z,6.67
2022-08-23T11:56:54.945Z,6.93
2022-08-23T11:58:23.296Z,6.70
2022-08-23T11:59:42.742Z,6.70
2022-08-23T12:01:07.638Z,6.57
2022-08-23T12:02:48.073Z,6.33
2022-08-23T12:03:57.413Z,6.17
2022-08-23T12:05:02.453Z,6.53
2022-08-23T12:06:39.156Z,6.33
2022-08-23T12:07:51.731Z,6.83
2022-08-23T12:08:56.670Z,6.40
2022-08-23T12:09:59.737Z,6.97
2022-08-23T12:11:09.481Z,6.57
2022-08-23T12:12:27.134Z,6.40
2022-08-23T12:13:43.983Z,6.93
2022-08-23T12:14:53.678Z,6.70
2022-08-23T12:16:16.239Z,6.90
2022-08-23T12:17:57.617Z,6.60
2022-08-23T12:19:06.755Z,7.13
2022-08-23T12:20:20.804Z,6.60
2022-08-23T12:21:28.828Z,6.30
2022-08-23T12:22:54.629Z,6.27
2022-08-23T12:24:01.437Z,7.00
2022-08-23T12:25:09.410Z,6.77
2022-08-23T12:26:26.812Z,6.87
2022-08-23T12:27:34.843Z,6.25
2022-08-23T12:28:44.316Z,7.03
2022-08-23T12:29:57.685Z,6.40
2022-08-23T12:31:07.767Z,6.33
2022-08-23T12:32:19.642Z,5.97
2022-08-23T12:33:32.385Z,5.80
2022-08-23T12:34:47.241Z,5.90
2022-08-23T12:36:00.591Z,5.80
2022-08-23T12:37:09.603Z,5.70
2022-08-23T12:38:19.270Z,6.00
2022-08-23T12:39:26.284Z,5.40
2022-08-23T12:40:33.520Z,5.30
2022-08-23T12:41:51.662Z,5.07
2022-08-23T12:43:05.051Z,5.30
2022-08-23T12:44:10.972Z,5.60
2022-08-23T12:45:16.706Z,4.90
2022-08-23T12:46:38.612Z,5.00
2022-08-23T12:47:43.340Z,4.93
2022-08-23T12:48:47.068Z,4.40
2022-08-23T12:50:00.582Z,5.03
2022-08-23T12:51:07.219Z,4.20
2022-08-23T12:52:12.616Z,5.17
2022-08-23T12:53:20.798Z,4.53
2022-08-23T12:54:34.033Z,4.50
2022-08-23T12:55:39.686Z,4.23
2022-08-23T12:56:46.765Z,4.40
2022-08-23T12:57:54.355Z,4.10
2022-08-23T12:58:59.805Z,4.30
2022-08-23T13:00:18.547Z,4.10
2022-08-23T13:01:26.400Z,4.10
2022-08-23T13:02:37.291Z,4.30
2022-08-23T13:03:44.489Z,4.27
2022-08-23T13:04:47.934Z,4.37
2022-08-23T13:05:56.630Z,4.10
2022-08-23T13:07:08.277Z,4.20
2022-08-23T13:08:14.134Z,4.13
2022-08-23T13:09:22.406Z,4.43
2022-08-23T13:10:25.028Z,4.30
2022-08-23T13:11:32.167Z,3.80
2022-08-23T13:12:34.519Z,4.10
2022-08-23T13:13:40.040Z,3.73
2022-08-23T13:14:46.351Z,4.30
2022-08-23T13:15:54.968Z,3.80
2022-08-23T13:16:59.446Z,3.63
2022-08-23T13:18:02.690Z,3.27
2022-08-23T13:19:18.028Z,3.73
2022-08-23T13:20:24.025Z,3.67
2022-08-23T13:21:39.553Z,3.30
2022-08-23T13:22:58.168Z,2.93
2022-08-23T13:24:22.740Z,3.43
2022-08-23T13:25:44.884Z,3.30
2022-08-23T13:26:48.805Z,3.43
2022-08-23T13:27:57.318Z,3.60
2022-08-23T13:29:09.612Z,3.47
2022-08-23T13:30:24.388Z,3.80
2022-08-23T13:31:49.019Z,3.67
2022-08-23T13:33:13.914Z,3.57
2022-08-23T13:34:47.190Z,3.47
2022-08-23T13:36:13.022Z,3.60
2022-08-23T13:37:21.420Z,3.80
2022-08-23T13:38:30.698Z,3.60
2022-08-23T13:39:34.225Z,3.97
2022-08-23T13:40:47.390Z,3.90
2022-08-23T13:41:49.384Z,4.17
2022-08-23T13:42:57.134Z,3.97
2022-08-23T13:44:00.325Z,3.40
2022-08-23T13:45:21.156Z,3.37
2022-08-23T13:46:26.763Z,4.33
2022-08-23T13:47:31.055Z,3.10
2022-08-23T13:48:48.054Z,3.00
2022-08-23T13:49:52.924Z,3.60
2022-08-23T13:51:15.890Z,3.37
2022-08-23T13:52:45.825Z,3.20
2022-08-23T13:53:42.222Z,3.13
2022-08-23T13:54:44.722Z,3.13
2022-08-23T13:55:55.941Z,3.50
2022-08-23T13:57:02.948Z,3.20
2022-08-23T13:58:13.886Z,3.63
2022-08-23T13:59:22.557Z,4.17
2022-08-23T14:00:28.615Z,3.53
2022-08-23T14:01:31.977Z,3.60
2022-08-23T14:02:35.432Z,3.40
2022-08-23T14:03:40.769Z,3.47
2022-08-23T14:04:44.399Z,3.80
2022-08-23T14:05:47.840Z,3.83
2022-08-23T14:06:51.440Z,3.23
2022-08-23T14:07:53.654Z,3.57
2022-08-23T14:08:59.436Z,4.03
2022-08-23T14:10:01.685Z,4.27
2022-08-23T14:11:06.479Z,3.73
2022-08-23T14:12:12.809Z,3.60
2022-08-23T14:13:18.575Z,3.80
2022-08-23T14:14:21.000Z,3.30
2022-08-23T14:15:54.671Z,3.93
2022-08-23T14:16:48.075Z,3.77
2022-08-23T14:17:54.179Z,3.63
2022-08-23T14:21:46.744Z,4.30
2022-08-23T14:22:49.912Z,4.00
2022-08-23T14:23:51.965Z,4.00
2022-08-23T14:24:55.048Z,4.00
2022-08-23T14:25:59.099Z,4.50
2022-08-23T14:27:02.848Z,3.90
2022-08-23T14:28:06.582Z,4.27
2022-08-23T14:29:09.912Z,4.80
2022-08-23T14:30:29.498Z,5.47
2022-08-23T14:31:32.249Z,5.03
2022-08-23T14:32:35.624Z,5.60
2022-08-23T14:33:37.773Z,5.37
2022-08-23T14:34:40.756Z,5.60
2022-08-23T14:35:44.078Z,5.20
2022-08-23T14:38:13.608Z,5.47
2022-08-23T14:39:16.768Z,5.70
2022-08-23T14:40:20.784Z,4.87
2022-08-23T14:41:27.704Z,4.90
2022-08-23T14:42:31.705Z,4.77
2022-08-23T14:43:33.979Z,4.83
2022-08-23T14:44:39.209Z,5.10
2022-08-23T14:45:41.367Z,5.40
2022-08-23T14:46:45.207Z,4.63
2022-08-23T14:47:47.435Z,4.70
2022-08-23T14:48:50.985Z,4.87
2022-08-23T14:49:54.146Z,5.13
2022-08-23T14:50:58.422Z,4.40
2022-08-23T14:52:02.132Z,4.80
2022-08-23T14:53:06.497Z,5.77
2022-08-23T14:54:13.559Z,4.70
2022-08-23T14:55:22.037Z,4.70
2022-08-23T14:56:27.254Z,5.17
2022-08-23T14:57:30.592Z,5.20
2022-08-23T14:58:33.085Z,5.67
2022-08-23T14:59:36.828Z,4.97
2022-08-23T15:00:38.928Z,4.90
2022-08-23T15:01:43.112Z,5.33
2022-08-23T15:02:47.777Z,5.00
2022-08-23T15:03:51.717Z,5.03
2022-08-23T15:04:55.747Z,5.40
2022-08-23T15:05:57.868Z,4.20
2022-08-23T15:07:19.258Z,4.70
2022-08-23T15:08:23.849Z,4.80
2022-08-23T15:09:26.742Z,4.70
2022-08-23T15:13:27.125Z,4.60
2022-08-23T15:14:33.247Z,4.57
2022-08-23T15:18:21.889Z,4.60
2022-08-23T15:19:24.848Z,5.30
2022-08-23T15:20:35.756Z,4.77
2022-08-23T15:21:38.882Z,5.23
2022-08-23T15:22:45.040Z,5.50
2022-08-23T15:23:49.114Z,5.47
2022-08-23T15:24:52.165Z,4.77
2022-08-23T15:25:55.004Z,4.90
2022-08-23T15:26:59.994Z,5.23
2022-08-23T15:28:03.217Z,5.80
2022-08-23T15:29:08.965Z,4.80
2022-08-23T15:30:12.810Z,5.20
2022-08-23T15:31:16.004Z,5.50